Ocoee 2 Observed Data For Previous 48 Hours

Note: Discharge information is a combination of river flows at the Ocoee No. 2 dam and the volume of water diverted by the Ocoee Flume, which bypasses the middle section of the river where recreational rafting is held.

Caption
Day and Hour Reservoir Elevation (behind dam)* Tailwater Elevation (below dam)* Average Hourly Discharge*
1/16/2019 2 AM EST 843.47 2,693
1/16/2019 3 AM EST 843.44 2,681
1/16/2019 4 AM EST 843.48 2,704
1/16/2019 5 AM EST 843.15 2,218
1/16/2019 6 AM EST 842.93 1,928
1/16/2019 7 AM EST 842.86 1,840
1/16/2019 8 AM EST 843.07 2,114
1/16/2019 9 AM EST 843.06 2,111
1/16/2019 10 AM EST 843.05 2,091
1/16/2019 11 AM EST 843.06 2,090
1/16/2019 12 PM EST 843.03 2,090
1/16/2019 1 PM EST 843.03 2,083
1/16/2019 2 PM EST 843.04 2,091
1/16/2019 3 PM EST 843.04 2,069
1/16/2019 4 PM EST 843.03 2,066
1/16/2019 5 PM EST 843.05 2,096
1/16/2019 6 PM EST 843.04 2,110
1/16/2019 7 PM EST 843.04 2,078
1/16/2019 8 PM EST 843.03 2,077
1/16/2019 9 PM EST 843.04 2,087
1/16/2019 10 PM EST 843.03 2,089
1/16/2019 11 PM EST 843.04 2,100
1/17/2019 12 AM EST 843.03 2,085
1/17/2019 1 AM EST 843.04 2,076
1/17/2019 2 AM EST 843.04 2,095
1/17/2019 3 AM EST 843.03 2,083
1/17/2019 4 AM EST 843.73 3,134
1/17/2019 5 AM EST 843.79 3,191
1/17/2019 6 AM EST 843.72 3,128
1/17/2019 7 AM EST 843.75 3,145
1/17/2019 8 AM EST 843.74 3,122
1/17/2019 9 AM EST 843.74 3,134
1/17/2019 10 AM EST 843.71 3,104
1/17/2019 11 AM EST 843.73 3,159
1/17/2019 12 PM EST 843.72 3,122
1/17/2019 1 PM EST 843.73 3,162
1/17/2019 2 PM EST 843.72 3,103
1/17/2019 3 PM EST 843.72 3,097
1/17/2019 4 PM EST 843.76 3,154
1/17/2019 5 PM EST 843.74 3,159
1/17/2019 6 PM EST 843.75 3,129
1/17/2019 7 PM EST 843.75 3,161
1/17/2019 8 PM EST 843.74 3,116
1/17/2019 9 PM EST 843.74 3,117
1/17/2019 10 PM EST 843.72 3,101
1/17/2019 11 PM EST 843.74 3,131

Elevations are in feet above sea level. Discharges are in cubic feet per second and are reported at the end of the hour.